sensor_id;sensor_type;location;lat;lon;timestamp;pressure;altitude;pressure_sealevel;temperature;humidity
7660;BME280;3872;47.902;8.162;2023-01-25T00:01:26;93035.31;;;0.61;100.00
7660;BME280;3872;47.902;8.162;2023-01-25T00:03:53;93028.09;;;0.76;100.00
7660;BME280;3872;47.902;8.162;2023-01-25T00:06:19;93029.44;;;0.78;100.00
7660;BME280;3872;47.902;8.162;2023-01-25T00:08:48;93020.22;;;0.96;100.00
7660;BME280;3872;47.902;8.162;2023-01-25T00:11:16;93038.66;;;0.74;100.00
7660;BME280;3872;47.902;8.162;2023-01-25T00:13:44;93016.38;;;0.60;100.00
7660;BME280;3872;47.902;8.162;2023-01-25T00:16:11;93020.25;;;0.38;100.00
7660;BME280;3872;47.902;8.162;2023-01-25T00:18:37;93019.44;;;0.89;100.00
7660;BME280;3872;47.902;8.162;2023-01-25T00:21:11;93019.84;;;0.92;100.00
7660;BME280;3872;47.902;8.162;2023-01-25T00:23:38;93014.91;;;0.84;100.00
7660;BME280;3872;47.902;8.162;2023-01-25T00:26:04;93013.31;;;0.83;100.00
7660;BME280;3872;47.902;8.162;2023-01-25T00:28:32;93017.09;;;0.81;100.00
7660;BME280;3872;47.902;8.162;2023-01-25T00:30:59;93012.19;;;0.66;100.00
7660;BME280;3872;47.902;8.162;2023-01-25T00:33:38;93009.84;;;0.96;100.00
7660;BME280;3872;47.902;8.162;2023-01-25T00:36:26;93004.88;;;0.94;100.00
7660;BME280;3872;47.902;8.162;2023-01-25T00:38:53;92997.31;;;1.24;100.00
7660;BME280;3872;47.902;8.162;2023-01-25T00:41:20;93001.25;;;1.02;100.00
7660;BME280;3872;47.902;8.162;2023-01-25T00:43:48;92994.53;;;0.43;100.00
7660;BME280;3872;47.902;8.162;2023-01-25T00:46:16;92985.53;;;0.52;100.00
7660;BME280;3872;47.902;8.162;2023-01-25T00:48:43;92993.19;;;0.85;100.00
7660;BME280;3872;47.902;8.162;2023-01-25T00:51:10;92980.13;;;0.98;100.00
7660;BME280;3872;47.902;8.162;2023-01-25T00:53:37;92992.34;;;0.91;100.00
7660;BME280;3872;47.902;8.162;2023-01-25T00:56:04;92984.72;;;0.96;100.00
7660;BME280;3872;47.902;8.162;2023-01-25T00:58:31;92994.91;;;0.98;100.00
7660;BME280;3872;47.902;8.162;2023-01-25T01:00:59;92994.31;;;0.51;100.00
7660;BME280;3872;47.902;8.162;2023-01-25T01:03:26;92986.31;;;0.97;100.00
7660;BME280;3872;47.902;8.162;2023-01-25T01:05:59;92994.00;;;0.72;100.00
7660;BME280;3872;47.902;8.162;2023-01-25T01:08:26;93002.06;;;0.96;100.00
7660;BME280;3872;47.902;8.162;2023-01-25T01:10:57;92987.00;;;1.17;100.00
7660;BME280;3872;47.902;8.162;2023-01-25T01:13:24;92986.19;;;1.17;100.00
7660;BME280;3872;47.902;8.162;2023-01-25T01:15:50;92993.22;;;1.10;100.00
7660;BME280;3872;47.902;8.162;2023-01-25T01:18:18;92998.56;;;1.15;100.00
7660;BME280;3872;47.902;8.162;2023-01-25T01:20:47;92994.16;;;0.84;100.00
7660;BME280;3872;47.902;8.162;2023-01-25T01:23:14;92987.88;;;0.67;100.00
7660;BME280;3872;47.902;8.162;2023-01-25T01:25:40;92985.94;;;0.56;100.00
7660;BME280;3872;47.902;8.162;2023-01-25T01:28:07;92977.81;;;0.39;100.00
7660;BME280;3872;47.902;8.162;2023-01-25T01:30:35;92979.53;;;0.96;100.00
7660;BME280;3872;47.902;8.162;2023-01-25T01:33:03;92982.97;;;0.90;100.00
7660;BME280;3872;47.902;8.162;2023-01-25T01:35:31;92990.94;;;0.89;100.00
7660;BME280;3872;47.902;8.162;2023-01-25T01:37:58;92981.81;;;0.79;100.00
7660;BME280;3872;47.902;8.162;2023-01-25T01:40:24;92972.88;;;0.75;100.00
7660;BME280;3872;47.902;8.162;2023-01-25T01:42:55;92972.44;;;1.16;100.00
7660;BME280;3872;47.902;8.162;2023-01-25T01:45:57;92979.84;;;1.13;100.00
7660;BME280;3872;47.902;8.162;2023-01-25T01:48:33;92970.44;;;1.18;100.00
7660;BME280;3872;47.902;8.162;2023-01-25T01:51:12;92976.16;;;1.27;100.00
7660;BME280;3872;47.902;8.162;2023-01-25T01:53:43;92970.78;;;0.97;100.00
7660;BME280;3872;47.902;8.162;2023-01-25T01:56:14;92968.44;;;0.89;100.00
7660;BME280;3872;47.902;8.162;2023-01-25T01:58:43;92975.53;;;1.00;100.00
7660;BME280;3872;47.902;8.162;2023-01-25T02:01:11;92963.66;;;1.17;100.00
7660;BME280;3872;47.902;8.162;2023-01-25T02:03:39;92972.28;;;1.11;100.00
7660;BME280;3872;47.902;8.162;2023-01-25T02:06:11;92962.88;;;1.17;100.00
7660;BME280;3872;47.902;8.162;2023-01-25T02:08:40;92962.75;;;1.05;100.00
7660;BME280;3872;47.902;8.162;2023-01-25T02:11:08;92958.31;;;1.12;100.00
7660;BME280;3872;47.902;8.162;2023-01-25T02:13:36;92959.38;;;1.05;100.00
7660;BME280;3872;47.902;8.162;2023-01-25T02:16:03;92967.13;;;0.67;100.00
7660;BME280;3872;47.902;8.162;2023-01-25T02:18:30;92969.47;;;1.13;100.00
7660;BME280;3872;47.902;8.162;2023-01-25T02:20:58;92969.66;;;0.80;100.00
7660;BME280;3872;47.902;8.162;2023-01-25T02:23:31;92963.25;;;0.89;100.00
7660;BME280;3872;47.902;8.162;2023-01-25T02:26:04;92965.69;;;1.09;100.00
7660;BME280;3872;47.902;8.162;2023-01-25T02:28:35;92959.84;;;0.51;100.00
7660;BME280;3872;47.902;8.162;2023-01-25T02:31:04;92964.25;;;0.88;100.00
7660;BME280;3872;47.902;8.162;2023-01-25T02:33:31;92956.69;;;1.18;100.00
7660;BME280;3872;47.902;8.162;2023-01-25T02:36:00;92960.19;;;0.99;100.00
7660;BME280;3872;47.902;8.162;2023-01-25T02:38:40;92965.19;;;0.94;100.00
7660;BME280;3872;47.902;8.162;2023-01-25T02:41:11;92964.19;;;0.95;100.00
7660;BME280;3872;47.902;8.162;2023-01-25T02:43:41;92961.66;;;0.88;100.00
7660;BME280;3872;47.902;8.162;2023-01-25T02:46:12;92957.41;;;0.62;100.00
7660;BME280;3872;47.902;8.162;2023-01-25T02:48:43;92955.66;;;0.56;100.00
7660;BME280;3872;47.902;8.162;2023-01-25T02:51:10;92964.63;;;0.54;100.00
7660;BME280;3872;47.902;8.162;2023-01-25T02:53:38;92961.59;;;0.63;100.00
7660;BME280;3872;47.902;8.162;2023-01-25T02:56:06;92951.47;;;0.55;100.00
7660;BME280;3872;47.902;8.162;2023-01-25T02:58:34;92949.97;;;0.72;100.00
7660;BME280;3872;47.902;8.162;2023-01-25T03:01:01;92959.09;;;0.82;100.00
7660;BME280;3872;47.902;8.162;2023-01-25T03:03:27;92956.88;;;0.47;100.00
7660;BME280;3872;47.902;8.162;2023-01-25T03:05:54;92945.78;;;0.78;100.00
7660;BME280;3872;47.902;8.162;2023-01-25T03:08:20;92951.72;;;0.78;100.00
7660;BME280;3872;47.902;8.162;2023-01-25T03:10:49;92955.50;;;0.38;100.00
7660;BME280;3872;47.902;8.162;2023-01-25T03:13:18;92949.06;;;0.54;100.00
7660;BME280;3872;47.902;8.162;2023-01-25T03:15:46;92942.75;;;0.81;100.00
7660;BME280;3872;47.902;8.162;2023-01-25T03:18:12;92942.47;;;0.58;100.00
7660;BME280;3872;47.902;8.162;2023-01-25T03:20:39;92937.00;;;0.72;100.00
7660;BME280;3872;47.902;8.162;2023-01-25T03:23:06;92937.72;;;0.55;100.00
7660;BME280;3872;47.902;8.162;2023-01-25T03:25:34;92933.97;;;0.82;100.00
7660;BME280;3872;47.902;8.162;2023-01-25T03:28:08;92932.38;;;0.81;100.00
7660;BME280;3872;47.902;8.162;2023-01-25T03:30:35;92923.75;;;0.62;100.00
7660;BME280;3872;47.902;8.162;2023-01-25T03:33:04;92931.31;;;0.64;100.00
7660;BME280;3872;47.902;8.162;2023-01-25T03:35:32;92927.81;;;0.83;100.00
7660;BME280;3872;47.902;8.162;2023-01-25T03:37:59;92925.28;;;0.70;100.00
7660;BME280;3872;47.902;8.162;2023-01-25T03:40:26;92927.72;;;0.58;100.00
7660;BME280;3872;47.902;8.162;2023-01-25T03:42:53;92923.78;;;0.56;100.00
7660;BME280;3872;47.902;8.162;2023-01-25T03:45:20;92930.56;;;0.50;100.00
7660;BME280;3872;47.902;8.162;2023-01-25T03:47:46;92926.53;;;0.61;100.00
7660;BME280;3872;47.902;8.162;2023-01-25T03:50:14;92922.47;;;0.78;100.00
7660;BME280;3872;47.902;8.162;2023-01-25T03:52:43;92925.72;;;0.60;100.00
7660;BME280;3872;47.902;8.162;2023-01-25T03:55:12;92928.13;;;0.62;100.00
7660;BME280;3872;47.902;8.162;2023-01-25T03:57:41;92914.69;;;0.78;100.00
7660;BME280;3872;47.902;8.162;2023-01-25T04:00:09;92916.56;;;0.96;100.00
7660;BME280;3872;47.902;8.162;2023-01-25T04:02:46;92931.63;;;0.36;100.00
7660;BME280;3872;47.902;8.162;2023-01-25T04:05:18;92921.13;;;0.69;100.00
7660;BME280;3872;47.902;8.162;2023-01-25T04:07:45;92923.16;;;0.92;100.00
7660;BME280;3872;47.902;8.162;2023-01-25T04:10:14;92916.44;;;0.46;100.00
7660;BME280;3872;47.902;8.162;2023-01-25T04:12:44;92914.97;;;0.63;100.00
7660;BME280;3872;47.902;8.162;2023-01-25T04:15:11;92907.66;;;0.54;100.00
7660;BME280;3872;47.902;8.162;2023-01-25T04:17:39;92912.91;;;0.41;100.00
7660;BME280;3872;47.902;8.162;2023-01-25T04:20:23;92901.34;;;0.74;100.00
7660;BME280;3872;47.902;8.162;2023-01-25T04:22:50;92906.69;;;0.48;100.00
7660;BME280;3872;47.902;8.162;2023-01-25T04:25:19;92905.97;;;0.66;100.00
7660;BME280;3872;47.902;8.162;2023-01-25T04:27:49;92904.72;;;0.37;100.00
7660;BME280;3872;47.902;8.162;2023-01-25T04:30:16;92903.22;;;0.61;100.00
7660;BME280;3872;47.902;8.162;2023-01-25T04:32:44;92899.28;;;0.52;100.00
7660;BME280;3872;47.902;8.162;2023-01-25T04:35:31;92886.19;;;0.71;100.00
7660;BME280;3872;47.902;8.162;2023-01-25T04:37:59;92896.25;;;0.61;100.00
7660;BME280;3872;47.902;8.162;2023-01-25T04:40:34;92894.03;;;0.65;100.00
7660;BME280;3872;47.902;8.162;2023-01-25T04:43:01;92895.53;;;0.48;100.00
7660;BME280;3872;47.902;8.162;2023-01-25T04:45:29;92891.19;;;0.42;100.00
7660;BME280;3872;47.902;8.162;2023-01-25T04:47:57;92881.66;;;0.35;100.00
7660;BME280;3872;47.902;8.162;2023-01-25T04:50:25;92899.81;;;0.22;100.00
7660;BME280;3872;47.902;8.162;2023-01-25T04:52:53;92890.75;;;0.45;100.00
7660;BME280;3872;47.902;8.162;2023-01-25T04:55:21;92889.13;;;0.50;100.00
7660;BME280;3872;47.902;8.162;2023-01-25T04:57:50;92891.09;;;0.55;100.00
7660;BME280;3872;47.902;8.162;2023-01-25T05:00:17;92890.47;;;0.91;100.00
7660;BME280;3872;47.902;8.162;2023-01-25T05:02:45;92893.03;;;0.97;100.00
7660;BME280;3872;47.902;8.162;2023-01-25T05:05:12;92888.03;;;0.71;100.00
7660;BME280;3872;47.902;8.162;2023-01-25T05:07:39;92888.91;;;0.20;100.00
7660;BME280;3872;47.902;8.162;2023-01-25T05:10:09;92886.38;;;0.07;100.00
7660;BME280;3872;47.902;8.162;2023-01-25T05:12:40;92887.94;;;0.08;100.00
7660;BME280;3872;47.902;8.162;2023-01-25T05:15:07;92885.53;;;0.13;100.00
7660;BME280;3872;47.902;8.162;2023-01-25T05:17:34;92893.28;;;0.20;100.00
7660;BME280;3872;47.902;8.162;2023-01-25T05:20:00;92891.22;;;0.35;100.00
7660;BME280;3872;47.902;8.162;2023-01-25T05:22:27;92891.72;;;0.50;100.00
7660;BME280;3872;47.902;8.162;2023-01-25T05:24:55;92890.59;;;0.39;100.00
7660;BME280;3872;47.902;8.162;2023-01-25T05:27:25;92884.41;;;0.41;100.00
7660;BME280;3872;47.902;8.162;2023-01-25T05:29:54;92889.97;;;0.44;100.00
7660;BME280;3872;47.902;8.162;2023-01-25T05:32:35;92888.78;;;0.71;100.00
7660;BME280;3872;47.902;8.162;2023-01-25T05:35:01;92884.25;;;0.67;100.00
7660;BME280;3872;47.902;8.162;2023-01-25T05:37:28;92886.97;;;0.47;100.00
7660;BME280;3872;47.902;8.162;2023-01-25T05:40:03;92889.38;;;0.42;100.00
7660;BME280;3872;47.902;8.162;2023-01-25T05:42:36;92892.22;;;0.65;100.00
7660;BME280;3872;47.902;8.162;2023-01-25T05:45:06;92892.06;;;0.60;100.00
7660;BME280;3872;47.902;8.162;2023-01-25T05:47:34;92890.50;;;0.53;100.00
7660;BME280;3872;47.902;8.162;2023-01-25T05:50:01;92894.47;;;0.17;100.00
7660;BME280;3872;47.902;8.162;2023-01-25T05:52:40;92889.31;;;0.55;100.00
7660;BME280;3872;47.902;8.162;2023-01-25T05:55:07;92892.97;;;0.41;100.00
7660;BME280;3872;47.902;8.162;2023-01-25T05:57:33;92887.53;;;0.56;100.00
7660;BME280;3872;47.902;8.162;2023-01-25T06:00:02;92897.00;;;0.30;100.00
7660;BME280;3872;47.902;8.162;2023-01-25T06:02:38;92885.84;;;0.68;100.00
7660;BME280;3872;47.902;8.162;2023-01-25T06:05:07;92883.91;;;0.88;100.00
7660;BME280;3872;47.902;8.162;2023-01-25T06:07:35;92884.44;;;0.34;100.00
7660;BME280;3872;47.902;8.162;2023-01-25T06:10:02;92891.09;;;0.17;100.00
7660;BME280;3872;47.902;8.162;2023-01-25T06:12:28;92881.44;;;0.37;100.00
7660;BME280;3872;47.902;8.162;2023-01-25T06:14:56;92885.81;;;-0.08;100.00
7660;BME280;3872;47.902;8.162;2023-01-25T06:17:24;92876.41;;;0.49;100.00
7660;BME280;3872;47.902;8.162;2023-01-25T06:20:26;92891.06;;;0.23;100.00
7660;BME280;3872;47.902;8.162;2023-01-25T06:23:06;92886.78;;;-0.03;100.00
7660;BME280;3872;47.902;8.162;2023-01-25T06:25:32;92888.63;;;0.35;100.00
7660;BME280;3872;47.902;8.162;2023-01-25T06:27:59;92887.72;;;0.54;100.00
7660;BME280;3872;47.902;8.162;2023-01-25T06:30:25;92883.09;;;0.63;100.00
7660;BME280;3872;47.902;8.162;2023-01-25T06:32:56;92878.75;;;0.19;100.00
7660;BME280;3872;47.902;8.162;2023-01-25T06:35:23;92873.78;;;0.55;100.00
7660;BME280;3872;47.902;8.162;2023-01-25T06:37:50;92873.59;;;0.82;100.00
7660;BME280;3872;47.902;8.162;2023-01-25T06:40:16;92865.97;;;0.62;100.00
7660;BME280;3872;47.902;8.162;2023-01-25T06:42:43;92866.56;;;0.64;100.00
7660;BME280;3872;47.902;8.162;2023-01-25T06:45:10;92870.44;;;0.48;100.00
7660;BME280;3872;47.902;8.162;2023-01-25T06:47:37;92867.22;;;0.08;100.00
7660;BME280;3872;47.902;8.162;2023-01-25T06:50:08;92867.50;;;0.00;100.00
7660;BME280;3872;47.902;8.162;2023-01-25T06:52:34;92865.06;;;0.43;100.00
7660;BME280;3872;47.902;8.162;2023-01-25T06:55:01;92868.72;;;0.35;100.00
7660;BME280;3872;47.902;8.162;2023-01-25T06:57:27;92860.63;;;0.50;100.00
7660;BME280;3872;47.902;8.162;2023-01-25T06:59:54;92861.97;;;0.28;100.00
7660;BME280;3872;47.902;8.162;2023-01-25T07:02:21;92862.44;;;0.12;100.00
7660;BME280;3872;47.902;8.162;2023-01-25T07:04:47;92863.06;;;0.45;100.00
7660;BME280;3872;47.902;8.162;2023-01-25T07:07:16;92854.25;;;0.53;100.00
7660;BME280;3872;47.902;8.162;2023-01-25T07:09:42;92856.22;;;0.57;100.00
7660;BME280;3872;47.902;8.162;2023-01-25T07:12:09;92855.13;;;0.40;100.00
7660;BME280;3872;47.902;8.162;2023-01-25T07:14:35;92860.91;;;-0.03;100.00
7660;BME280;3872;47.902;8.162;2023-01-25T07:17:02;92854.56;;;0.69;100.00
7660;BME280;3872;47.902;8.162;2023-01-25T07:19:29;92855.59;;;0.87;100.00
7660;BME280;3872;47.902;8.162;2023-01-25T07:21:55;92853.31;;;0.47;100.00
7660;BME280;3872;47.902;8.162;2023-01-25T07:24:23;92853.94;;;0.43;100.00
7660;BME280;3872;47.902;8.162;2023-01-25T07:26:51;92849.41;;;0.63;100.00
7660;BME280;3872;47.902;8.162;2023-01-25T07:29:17;92850.72;;;1.03;100.00
7660;BME280;3872;47.902;8.162;2023-01-25T07:31:44;92850.31;;;1.00;100.00
7660;BME280;3872;47.902;8.162;2023-01-25T07:34:11;92851.66;;;1.09;100.00
7660;BME280;3872;47.902;8.162;2023-01-25T07:36:39;92857.91;;;1.26;100.00
7660;BME280;3872;47.902;8.162;2023-01-25T07:39:05;92861.19;;;0.90;100.00
7660;BME280;3872;47.902;8.162;2023-01-25T07:41:35;92867.13;;;0.66;100.00
7660;BME280;3872;47.902;8.162;2023-01-25T07:44:01;92857.41;;;0.86;100.00
7660;BME280;3872;47.902;8.162;2023-01-25T07:46:36;92858.75;;;0.95;100.00
7660;BME280;3872;47.902;8.162;2023-01-25T07:49:02;92863.47;;;0.73;100.00
7660;BME280;3872;47.902;8.162;2023-01-25T07:51:29;92865.19;;;0.86;100.00
7660;BME280;3872;47.902;8.162;2023-01-25T07:53:57;92867.38;;;0.89;100.00
7660;BME280;3872;47.902;8.162;2023-01-25T07:56:25;92857.84;;;1.08;100.00
7660;BME280;3872;47.902;8.162;2023-01-25T07:58:54;92858.97;;;1.37;100.00
7660;BME280;3872;47.902;8.162;2023-01-25T08:01:22;92864.13;;;0.94;100.00
7660;BME280;3872;47.902;8.162;2023-01-25T08:03:50;92865.63;;;0.83;100.00
7660;BME280;3872;47.902;8.162;2023-01-25T08:06:22;92858.91;;;1.00;100.00
7660;BME280;3872;47.902;8.162;2023-01-25T08:08:52;92849.84;;;0.22;100.00
7660;BME280;3872;47.902;8.162;2023-01-25T08:11:20;92857.50;;;0.73;100.00
7660;BME280;3872;47.902;8.162;2023-01-25T08:13:47;92848.31;;;1.02;100.00
7660;BME280;3872;47.902;8.162;2023-01-25T08:16:17;92848.31;;;0.77;100.00
7660;BME280;3872;47.902;8.162;2023-01-25T08:18:46;92850.63;;;0.92;100.00
7660;BME280;3872;47.902;8.162;2023-01-25T08:21:12;92850.91;;;1.02;100.00
7660;BME280;3872;47.902;8.162;2023-01-25T08:23:39;92847.25;;;1.34;100.00
7660;BME280;3872;47.902;8.162;2023-01-25T08:26:07;92835.22;;;1.40;100.00
7660;BME280;3872;47.902;8.162;2023-01-25T08:28:34;92838.75;;;1.45;100.00
7660;BME280;3872;47.902;8.162;2023-01-25T08:31:05;92831.69;;;1.71;100.00
7660;BME280;3872;47.902;8.162;2023-01-25T08:33:34;92827.53;;;1.51;100.00
7660;BME280;3872;47.902;8.162;2023-01-25T08:36:01;92823.13;;;1.34;100.00
7660;BME280;3872;47.902;8.162;2023-01-25T08:38:27;92819.00;;;1.44;100.00
7660;BME280;3872;47.902;8.162;2023-01-25T08:40:54;92820.19;;;1.67;100.00
7660;BME280;3872;47.902;8.162;2023-01-25T08:43:21;92814.41;;;1.46;100.00
7660;BME280;3872;47.902;8.162;2023-01-25T08:45:55;92817.44;;;1.62;100.00
7660;BME280;3872;47.902;8.162;2023-01-25T08:48:21;92814.81;;;1.25;100.00
7660;BME280;3872;47.902;8.162;2023-01-25T08:50:49;92822.56;;;1.68;100.00
7660;BME280;3872;47.902;8.162;2023-01-25T08:53:16;92819.53;;;1.71;100.00
7660;BME280;3872;47.902;8.162;2023-01-25T08:55:43;92820.91;;;1.55;100.00
7660;BME280;3872;47.902;8.162;2023-01-25T08:58:09;92818.00;;;1.45;100.00
7660;BME280;3872;47.902;8.162;2023-01-25T09:00:38;92816.03;;;1.23;100.00
7660;BME280;3872;47.902;8.162;2023-01-25T09:03:04;92807.91;;;1.37;100.00
7660;BME280;3872;47.902;8.162;2023-01-25T09:05:32;92811.34;;;0.88;100.00
7660;BME280;3872;47.902;8.162;2023-01-25T09:08:00;92808.41;;;0.85;100.00
7660;BME280;3872;47.902;8.162;2023-01-25T09:10:27;92807.81;;;0.83;100.00
7660;BME280;3872;47.902;8.162;2023-01-25T09:12:54;92804.00;;;1.10;100.00
7660;BME280;3872;47.902;8.162;2023-01-25T09:15:21;92799.50;;;1.42;100.00
7660;BME280;3872;47.902;8.162;2023-01-25T09:17:49;92801.44;;;1.65;100.00
7660;BME280;3872;47.902;8.162;2023-01-25T09:20:16;92800.06;;;1.80;100.00
7660;BME280;3872;47.902;8.162;2023-01-25T09:22:43;92795.38;;;1.71;100.00
7660;BME280;3872;47.902;8.162;2023-01-25T09:25:11;92782.09;;;1.97;100.00
7660;BME280;3872;47.902;8.162;2023-01-25T09:27:38;92790.25;;;1.64;100.00
7660;BME280;3872;47.902;8.162;2023-01-25T09:30:06;92791.94;;;1.77;100.00
7660;BME280;3872;47.902;8.162;2023-01-25T09:32:34;92787.38;;;1.72;100.00
7660;BME280;3872;47.902;8.162;2023-01-25T09:35:00;92785.56;;;1.91;100.00
7660;BME280;3872;47.902;8.162;2023-01-25T09:37:28;92786.50;;;2.26;100.00
7660;BME280;3872;47.902;8.162;2023-01-25T09:39:55;92775.94;;;2.10;100.00
7660;BME280;3872;47.902;8.162;2023-01-25T09:42:29;92778.63;;;2.03;100.00
7660;BME280;3872;47.902;8.162;2023-01-25T09:45:23;92768.34;;;2.38;100.00
7660;BME280;3872;47.902;8.162;2023-01-25T09:47:58;92778.41;;;1.86;100.00
7660;BME280;3872;47.902;8.162;2023-01-25T09:50:36;92777.91;;;1.48;100.00
7660;BME280;3872;47.902;8.162;2023-01-25T09:53:17;92779.47;;;1.49;100.00
7660;BME280;3872;47.902;8.162;2023-01-25T09:55:49;92783.78;;;1.18;100.00
7660;BME280;3872;47.902;8.162;2023-01-25T09:58:23;92789.50;;;1.02;100.00
7660;BME280;3872;47.902;8.162;2023-01-25T10:00:54;92783.06;;;1.48;100.00
7660;BME280;3872;47.902;8.162;2023-01-25T10:03:29;92785.22;;;1.51;100.00
7660;BME280;3872;47.902;8.162;2023-01-25T10:05:59;92789.56;;;1.21;100.00
7660;BME280;3872;47.902;8.162;2023-01-25T10:08:31;92790.72;;;1.00;100.00
7660;BME280;3872;47.902;8.162;2023-01-25T10:11:01;92789.16;;;0.74;100.00
7660;BME280;3872;47.902;8.162;2023-01-25T10:13:32;92793.22;;;1.13;100.00
7660;BME280;3872;47.902;8.162;2023-01-25T10:16:03;92796.25;;;1.46;100.00
7660;BME280;3872;47.902;8.162;2023-01-25T10:18:34;92798.34;;;1.56;100.00
7660;BME280;3872;47.902;8.162;2023-01-25T10:21:06;92796.41;;;1.51;100.00
7660;BME280;3872;47.902;8.162;2023-01-25T10:23:47;92790.19;;;1.71;100.00
7660;BME280;3872;47.902;8.162;2023-01-25T10:26:21;92778.16;;;2.36;100.00
7660;BME280;3872;47.902;8.162;2023-01-25T10:28:56;92775.72;;;2.11;100.00
7660;BME280;3872;47.902;8.162;2023-01-25T10:31:31;92774.53;;;2.25;100.00
7660;BME280;3872;47.902;8.162;2023-01-25T10:34:12;92771.31;;;2.12;100.00
7660;BME280;3872;47.902;8.162;2023-01-25T10:36:40;92760.97;;;1.93;100.00
7660;BME280;3872;47.902;8.162;2023-01-25T10:39:08;92750.56;;;2.65;100.00
7660;BME280;3872;47.902;8.162;2023-01-25T10:41:38;92751.47;;;2.70;100.00
7660;BME280;3872;47.902;8.162;2023-01-25T10:44:10;92746.63;;;2.86;100.00
7660;BME280;3872;47.902;8.162;2023-01-25T10:46:56;92752.84;;;2.96;100.00
7660;BME280;3872;47.902;8.162;2023-01-25T10:49:28;92756.78;;;3.22;100.00
7660;BME280;3872;47.902;8.162;2023-01-25T10:52:11;92759.25;;;2.59;100.00
7660;BME280;3872;47.902;8.162;2023-01-25T10:54:38;92752.81;;;2.61;100.00
7660;BME280;3872;47.902;8.162;2023-01-25T10:57:05;92741.78;;;2.36;100.00
7660;BME280;3872;47.902;8.162;2023-01-25T10:59:34;92739.63;;;2.21;100.00
7660;BME280;3872;47.902;8.162;2023-01-25T11:02:34;92736.66;;;2.59;100.00
7660;BME280;3872;47.902;8.162;2023-01-25T11:05:30;92725.47;;;2.59;100.00
7660;BME280;3872;47.902;8.162;2023-01-25T11:07:58;92726.53;;;2.28;100.00
7660;BME280;3872;47.902;8.162;2023-01-25T11:10:31;92729.88;;;2.58;100.00
7660;BME280;3872;47.902;8.162;2023-01-25T11:13:17;92725.94;;;2.79;100.00
7660;BME280;3872;47.902;8.162;2023-01-25T11:15:48;92720.41;;;2.11;100.00
7660;BME280;3872;47.902;8.162;2023-01-25T11:18:19;92715.72;;;2.31;100.00
7660;BME280;3872;47.902;8.162;2023-01-25T11:20:47;92716.78;;;2.53;100.00
7660;BME280;3872;47.902;8.162;2023-01-25T11:23:22;92722.06;;;2.47;100.00
7660;BME280;3872;47.902;8.162;2023-01-25T11:25:50;92715.66;;;2.08;100.00
7660;BME280;3872;47.902;8.162;2023-01-25T11:28:19;92712.69;;;2.34;100.00
7660;BME280;3872;47.902;8.162;2023-01-25T11:30:49;92709.44;;;2.62;100.00
7660;BME280;3872;47.902;8.162;2023-01-25T11:33:18;92707.06;;;2.60;100.00
7660;BME280;3872;47.902;8.162;2023-01-25T11:36:04;92717.25;;;2.62;100.00
7660;BME280;3872;47.902;8.162;2023-01-25T11:38:35;92705.25;;;2.72;100.00
7660;BME280;3872;47.902;8.162;2023-01-25T11:41:08;92701.88;;;2.72;100.00
7660;BME280;3872;47.902;8.162;2023-01-25T11:43:49;92698.03;;;2.63;100.00
7660;BME280;3872;47.902;8.162;2023-01-25T11:46:29;92702.88;;;2.59;100.00
7660;BME280;3872;47.902;8.162;2023-01-25T11:49:09;92697.69;;;2.83;100.00
7660;BME280;3872;47.902;8.162;2023-01-25T11:51:40;92698.94;;;2.80;100.00
7660;BME280;3872;47.902;8.162;2023-01-25T11:54:32;92695.66;;;2.73;100.00
7660;BME280;3872;47.902;8.162;2023-01-25T11:57:08;92692.69;;;2.93;100.00
7660;BME280;3872;47.902;8.162;2023-01-25T11:59:55;92674.41;;;2.53;100.00
7660;BME280;3872;47.902;8.162;2023-01-25T12:02:45;92677.69;;;2.95;100.00
7660;BME280;3872;47.902;8.162;2023-01-25T12:05:29;92670.75;;;2.19;100.00
7660;BME280;3872;47.902;8.162;2023-01-25T12:08:07;92667.28;;;2.36;100.00
7660;BME280;3872;47.902;8.162;2023-01-25T12:10:44;92665.25;;;2.50;100.00
7660;BME280;3872;47.902;8.162;2023-01-25T12:13:22;92661.31;;;2.59;100.00
7660;BME280;3872;47.902;8.162;2023-01-25T12:16:02;92657.13;;;2.58;100.00
7660;BME280;3872;47.902;8.162;2023-01-25T12:18:54;92658.94;;;2.69;100.00
7660;BME280;3872;47.902;8.162;2023-01-25T12:21:35;92648.06;;;2.26;100.00
7660;BME280;3872;47.902;8.162;2023-01-25T12:24:18;92655.88;;;2.26;100.00
7660;BME280;3872;47.902;8.162;2023-01-25T12:26:55;92641.13;;;1.96;100.00
7660;BME280;3872;47.902;8.162;2023-01-25T12:29:28;92638.69;;;2.36;100.00
7660;BME280;3872;47.902;8.162;2023-01-25T12:32:00;92639.75;;;2.47;100.00
7660;BME280;3872;47.902;8.162;2023-01-25T12:34:34;92625.94;;;2.35;100.00
7660;BME280;3872;47.902;8.162;2023-01-25T12:37:10;92625.50;;;2.61;100.00
7660;BME280;3872;47.902;8.162;2023-01-25T12:39:43;92621.44;;;2.30;100.00
7660;BME280;3872;47.902;8.162;2023-01-25T12:42:15;92612.47;;;2.85;100.00
7660;BME280;3872;47.902;8.162;2023-01-25T12:44:46;92606.03;;;2.87;100.00
7660;BME280;3872;47.902;8.162;2023-01-25T12:47:19;92598.19;;;3.10;100.00
7660;BME280;3872;47.902;8.162;2023-01-25T12:49:51;92598.06;;;2.54;100.00
7660;BME280;3872;47.902;8.162;2023-01-25T12:52:22;92588.22;;;3.07;100.00
7660;BME280;3872;47.902;8.162;2023-01-25T12:54:51;92583.81;;;3.08;100.00
7660;BME280;3872;47.902;8.162;2023-01-25T12:57:23;92588.50;;;2.94;100.00
7660;BME280;3872;47.902;8.162;2023-01-25T12:59:58;92572.66;;;1.98;100.00
7660;BME280;3872;47.902;8.162;2023-01-25T13:02:42;92576.56;;;2.58;100.00
7660;BME280;3872;47.902;8.162;2023-01-25T13:05:24;92574.44;;;1.97;100.00
7660;BME280;3872;47.902;8.162;2023-01-25T13:07:58;92570.34;;;1.78;100.00
7660;BME280;3872;47.902;8.162;2023-01-25T13:10:30;92569.84;;;1.57;100.00
7660;BME280;3872;47.902;8.162;2023-01-25T13:13:00;92566.91;;;2.19;100.00
7660;BME280;3872;47.902;8.162;2023-01-25T13:15:39;92568.47;;;2.31;100.00
7660;BME280;3872;47.902;8.162;2023-01-25T13:18:34;92563.16;;;1.91;100.00
7660;BME280;3872;47.902;8.162;2023-01-25T13:21:06;92567.22;;;2.46;100.00
7660;BME280;3872;47.902;8.162;2023-01-25T13:23:37;92555.41;;;2.78;100.00
7660;BME280;3872;47.902;8.162;2023-01-25T13:32:13;92568.78;;;2.00;100.00
7660;BME280;3872;47.902;8.162;2023-01-25T13:34:56;92566.31;;;1.93;100.00
7660;BME280;3872;47.902;8.162;2023-01-25T13:37:25;92561.81;;;2.24;100.00
7660;BME280;3872;47.902;8.162;2023-01-25T13:39:53;92567.56;;;2.38;100.00
7660;BME280;3872;47.902;8.162;2023-01-25T13:42:22;92569.31;;;1.79;100.00
7660;BME280;3872;47.902;8.162;2023-01-25T13:44:52;92569.59;;;2.35;100.00
7660;BME280;3872;47.902;8.162;2023-01-25T13:47:21;92561.56;;;2.02;100.00